createdAt,value
2019-04-07T00:01:51.432Z,76.92
2019-04-07T00:04:20.342Z,77.13
2019-04-07T00:06:48.960Z,77.14
2019-04-07T00:09:17.651Z,77.33
2019-04-07T00:11:46.167Z,77.26
2019-04-07T00:14:14.666Z,77.22
2019-04-07T00:16:44.180Z,77.28
2019-04-07T00:19:12.646Z,77.49
2019-04-07T00:21:41.152Z,77.75
2019-04-07T00:24:10.237Z,77.85
2019-04-07T00:26:39.382Z,77.63
2019-04-07T00:29:07.926Z,77.67
2019-04-07T00:31:36.399Z,77.72
2019-04-07T00:34:05.296Z,77.69
2019-04-07T00:36:34.170Z,78.18
2019-04-07T00:39:02.730Z,78.42
2019-04-07T00:41:31.205Z,78.46
2019-04-07T00:44:00.018Z,78.54
2019-04-07T00:46:28.890Z,78.20
2019-04-07T00:48:57.829Z,77.85
2019-04-07T00:51:26.745Z,77.81
2019-04-07T00:53:55.282Z,77.96
2019-04-07T00:56:23.720Z,77.85
2019-04-07T00:58:52.424Z,77.86
2019-04-07T01:01:20.848Z,78.10
2019-04-07T01:03:49.308Z,78.08
2019-04-07T01:06:17.819Z,78.03
2019-04-07T01:08:46.367Z,78.09
2019-04-07T01:11:14.837Z,78.12
2019-04-07T01:13:43.344Z,78.31
2019-04-07T01:16:11.952Z,78.40
2019-04-07T01:18:41.755Z,78.30
2019-04-07T01:21:10.209Z,78.02
2019-04-07T01:23:39.130Z,78.05
2019-04-07T01:26:07.634Z,78.02
2019-04-07T01:28:36.327Z,78.15
2019-04-07T01:31:05.517Z,78.22
2019-04-07T01:33:34.200Z,78.21
2019-04-07T01:36:02.668Z,78.65
2019-04-07T01:38:31.128Z,78.80
2019-04-07T01:41:04.824Z,78.67
2019-04-07T01:43:37.412Z,78.28
2019-04-07T01:46:16.448Z,78.26
2019-04-07T01:48:53.215Z,78.49
2019-04-07T01:51:29.113Z,78.86
2019-04-07T01:54:17.569Z,79.27
2019-04-07T01:57:04.513Z,79.41
2019-04-07T01:59:37.659Z,79.19
2019-04-07T02:02:08.113Z,78.78
2019-04-07T02:04:47.917Z,78.79
2019-04-07T02:07:20.654Z,79.20
2019-04-07T02:10:02.620Z,79.26
2019-04-07T02:12:50.757Z,79.34
2019-04-07T02:15:35.853Z,79.35
2019-04-07T02:18:06.065Z,79.00
2019-04-07T02:20:59.057Z,79.38
2019-04-07T02:23:35.493Z,79.71
2019-04-07T02:26:06.050Z,79.85
2019-04-07T02:28:52.605Z,80.04
2019-04-07T02:31:23.503Z,79.96
2019-04-07T02:33:54.505Z,79.85
2019-04-07T02:36:43.205Z,80.27
2019-04-07T02:39:13.456Z,80.31
2019-04-07T02:42:00.360Z,80.34
2019-04-07T02:44:31.489Z,80.49
2019-04-07T02:47:02.963Z,80.55
2019-04-07T02:49:45.738Z,80.55
2019-04-07T02:52:16.596Z,80.71
2019-04-07T02:54:46.873Z,80.69
2019-04-07T02:57:17.018Z,80.60
2019-04-07T02:59:47.912Z,80.68
2019-04-07T03:02:18.207Z,80.76
2019-04-07T03:04:48.331Z,80.92
2019-04-07T03:07:21.686Z,80.59
2019-04-07T03:09:51.966Z,80.92
2019-04-07T03:12:31.716Z,80.97
2019-04-07T03:15:11.202Z,80.92
2019-04-07T03:17:44.162Z,81.14
2019-04-07T03:20:17.226Z,81.05
2019-04-07T03:22:47.441Z,81.68
2019-04-07T03:25:18.455Z,81.68
2019-04-07T03:27:54.722Z,81.21
2019-04-07T03:30:37.587Z,81.23
2019-04-07T03:33:26.093Z,81.26
2019-04-07T03:36:16.091Z,81.15
2019-04-07T03:38:44.033Z,81.04
2019-04-07T03:41:33.239Z,81.14
2019-04-07T03:44:03.437Z,81.29
2019-04-07T03:46:41.072Z,81.29
2019-04-07T03:49:14.051Z,81.24
2019-04-07T03:51:53.176Z,81.24
2019-04-07T03:54:24.202Z,81.42
2019-04-07T03:57:03.338Z,81.15
2019-04-07T03:59:33.530Z,80.91
2019-04-07T04:02:06.751Z,80.73
2019-04-07T04:04:45.724Z,80.97
2019-04-07T04:07:25.544Z,80.66
2019-04-07T04:09:53.842Z,80.61
2019-04-07T04:12:39.209Z,80.34
2019-04-07T04:15:12.928Z,80.34
2019-04-07T04:17:41.424Z,80.99
2019-04-07T04:20:10.596Z,80.99
2019-04-07T04:22:39.664Z,80.67
2019-04-07T04:25:10.518Z,80.90
2019-04-07T04:27:39.218Z,80.90
2019-04-07T04:30:12.002Z,80.85
2019-04-07T04:32:41.407Z,80.70
2019-04-07T04:35:10.802Z,80.97
2019-04-07T04:37:44.171Z,80.67
2019-04-07T04:40:09.696Z,80.67
2019-04-07T04:42:38.172Z,80.96
2019-04-07T04:45:08.534Z,81.30
2019-04-07T04:47:37.682Z,81.30
2019-04-07T04:50:08.085Z,81.20
2019-04-07T04:52:36.865Z,81.29
2019-04-07T04:55:05.654Z,81.29
2019-04-07T04:57:35.153Z,81.10
2019-04-07T05:00:06.234Z,81.10
2019-04-07T05:02:34.843Z,80.61
2019-04-07T05:05:05.319Z,80.61
2019-04-07T05:07:48.858Z,81.50
2019-04-07T05:10:05.751Z,81.50
2019-04-07T05:12:34.239Z,81.59
2019-04-07T05:15:04.096Z,80.71
2019-04-07T05:17:32.715Z,80.48
2019-04-07T05:20:01.371Z,80.48
2019-04-07T05:22:29.896Z,80.34
2019-04-07T05:24:58.370Z,79.74
2019-04-07T05:27:27.843Z,79.57
2019-04-07T05:29:56.721Z,79.45
2019-04-07T05:32:25.271Z,79.43
2019-04-07T05:34:55.632Z,79.36
2019-04-07T05:37:26.128Z,79.19
2019-04-07T05:39:55.000Z,78.92
2019-04-07T05:42:23.557Z,78.86
2019-04-07T05:44:52.016Z,79.11
2019-04-07T05:47:21.288Z,78.81
2019-04-07T05:49:49.982Z,78.67
2019-04-07T05:52:19.189Z,79.60
2019-04-07T05:54:49.911Z,79.61
2019-04-07T05:57:18.610Z,79.70
2019-04-07T05:59:47.268Z,79.56
2019-04-07T06:02:15.729Z,79.70
2019-04-07T06:04:44.366Z,79.75
2019-04-07T06:07:14.831Z,79.97
2019-04-07T06:09:43.775Z,79.90
2019-04-07T06:12:12.830Z,79.60
2019-04-07T06:14:41.752Z,79.36
2019-04-07T06:17:10.851Z,79.05
2019-04-07T06:19:41.172Z,78.59
2019-04-07T06:22:10.081Z,78.43
2019-04-07T06:24:38.541Z,78.37
2019-04-07T06:27:07.093Z,78.37
2019-04-07T06:29:36.668Z,78.10
2019-04-07T06:32:07.265Z,78.03
2019-04-07T06:34:35.384Z,77.71
2019-04-07T06:37:04.438Z,77.46
2019-04-07T06:39:32.914Z,77.22
2019-04-07T06:42:02.477Z,77.00
2019-04-07T06:44:31.277Z,76.81
2019-04-07T06:47:04.673Z,76.58
2019-04-07T06:49:34.886Z,76.43
2019-04-07T06:52:04.998Z,76.12
2019-04-07T06:54:54.968Z,75.81
2019-04-07T06:57:28.312Z,75.56
2019-04-07T07:00:10.823Z,74.92
2019-04-07T07:03:02.886Z,74.50
2019-04-07T07:05:48.315Z,74.27
2019-04-07T07:08:43.254Z,73.73
2019-04-07T07:11:24.801Z,73.11
2019-04-07T07:13:45.068Z,72.80
2019-04-07T07:16:18.254Z,73.14
2019-04-07T07:19:05.244Z,73.30
2019-04-07T07:21:41.532Z,73.08
2019-04-07T07:24:10.438Z,72.74
2019-04-07T07:26:39.567Z,72.59
2019-04-07T07:29:08.354Z,72.33
2019-04-07T07:31:36.989Z,72.38
2019-04-07T07:34:05.526Z,72.61
2019-04-07T07:36:34.050Z,72.22
2019-04-07T07:39:08.291Z,71.89
2019-04-07T07:41:32.751Z,71.78
2019-04-07T07:44:03.595Z,71.56
2019-04-07T07:46:32.242Z,71.00
2019-04-07T07:49:02.069Z,70.74
2019-04-07T07:51:31.394Z,70.47
2019-04-07T07:54:01.832Z,69.98
2019-04-07T07:56:30.301Z,69.67
2019-04-07T07:59:00.215Z,69.33
2019-04-07T08:01:29.012Z,68.93
2019-04-07T08:03:58.654Z,68.74
2019-04-07T08:06:27.400Z,68.27
2019-04-07T08:09:07.621Z,67.80
2019-04-07T08:11:26.080Z,67.46
2019-04-07T08:13:55.403Z,67.07
2019-04-07T08:16:24.045Z,66.61
2019-04-07T08:18:52.536Z,65.92
2019-04-07T08:21:21.034Z,65.43
2019-04-07T08:23:52.460Z,64.51
2019-04-07T08:26:24.362Z,64.21
2019-04-07T08:28:51.398Z,62.48
2019-04-07T08:31:21.450Z,61.15
2019-04-07T08:33:51.586Z,60.33
2019-04-07T08:36:20.869Z,58.97
2019-04-07T08:38:51.798Z,58.15
2019-04-07T08:41:19.535Z,56.80
2019-04-07T08:43:53.280Z,56.01
2019-04-07T08:46:20.100Z,55.10
2019-04-07T08:48:51.773Z,55.24
2019-04-07T08:51:20.049Z,54.54
2019-04-07T08:53:48.543Z,53.97
2019-04-07T08:56:18.364Z,53.15
2019-04-07T08:58:46.889Z,52.96
2019-04-07T09:01:19.324Z,52.16
2019-04-07T09:03:47.332Z,51.68
2019-04-07T09:06:16.298Z,51.60
2019-04-07T09:08:44.994Z,51.09
2019-04-07T09:11:15.840Z,50.66
2019-04-07T09:13:46.553Z,50.67
2019-04-07T09:16:18.544Z,50.79
2019-04-07T09:19:01.098Z,50.08
2019-04-07T09:21:38.638Z,49.55
2019-04-07T09:24:30.624Z,48.45
2019-04-07T09:27:23.016Z,48.58
2019-04-07T09:29:52.371Z,48.82
2019-04-07T09:32:39.534Z,48.23
2019-04-07T09:35:10.221Z,46.94
2019-04-07T09:37:55.991Z,46.93
2019-04-07T09:40:29.120Z,46.73
2019-04-07T09:43:01.116Z,46.18
2019-04-07T09:45:47.939Z,45.55
2019-04-07T09:48:22.867Z,45.16
2019-04-07T09:50:55.431Z,44.73
2019-04-07T09:53:40.355Z,44.70
2019-04-07T09:56:16.343Z,44.27
2019-04-07T09:59:00.320Z,43.64
2019-04-07T10:01:40.130Z,43.11
2019-04-07T10:04:12.037Z,42.84
2019-04-07T10:06:51.224Z,42.91
2019-04-07T10:09:36.823Z,42.50
2019-04-07T10:12:24.821Z,42.48
2019-04-07T10:15:12.084Z,42.83
2019-04-07T10:17:52.380Z,42.65
2019-04-07T10:20:38.652Z,41.50
2019-04-07T10:23:17.826Z,40.85
2019-04-07T10:26:04.282Z,40.56
2019-04-07T10:28:36.707Z,38.76
2019-04-07T10:31:09.252Z,39.06
2019-04-07T10:33:51.897Z,39.02
2019-04-07T10:36:22.978Z,38.16
2019-04-07T10:39:11.045Z,37.89
2019-04-07T10:42:00.228Z,38.12
2019-04-07T10:44:34.098Z,38.05
2019-04-07T10:47:21.220Z,37.66
2019-04-07T10:50:05.159Z,38.20
2019-04-07T10:52:48.606Z,38.55
2019-04-07T10:55:27.679Z,38.70
2019-04-07T10:58:00.574Z,38.09
2019-04-07T11:00:48.804Z,37.58
2019-04-07T11:03:26.115Z,37.77
2019-04-07T11:06:03.937Z,37.45
2019-04-07T11:08:37.589Z,36.70
2019-04-07T11:11:13.525Z,36.80
2019-04-07T11:13:46.976Z,37.04
2019-04-07T11:16:23.268Z,36.93
2019-04-07T11:19:09.900Z,36.35
2019-04-07T11:21:58.034Z,36.41
2019-04-07T11:24:43.806Z,36.50
2019-04-07T11:27:14.797Z,35.62
2019-04-07T11:29:44.961Z,35.49
2019-04-07T11:32:30.526Z,35.12
2019-04-07T11:35:07.105Z,34.87
2019-04-07T11:37:45.875Z,34.83
2019-04-07T11:40:41.983Z,33.54
2019-04-07T11:43:20.804Z,33.56
2019-04-07T11:46:09.103Z,33.73
2019-04-07T11:48:39.403Z,33.88
2019-04-07T11:51:18.525Z,33.85
2019-04-07T11:53:57.774Z,33.72
2019-04-07T11:56:37.188Z,34.08
2019-04-07T11:59:10.268Z,33.94
2019-04-07T12:01:46.063Z,34.46
2019-04-07T12:04:26.749Z,34.99
2019-04-07T12:06:56.853Z,34.60
2019-04-07T12:09:26.978Z,34.14
2019-04-07T12:12:13.663Z,33.92
2019-04-07T12:14:47.172Z,34.09
2019-04-07T12:17:16.591Z,34.41
2019-04-07T12:19:47.314Z,34.33
2019-04-07T12:22:32.805Z,33.86
2019-04-07T12:25:04.445Z,34.02
2019-04-07T12:27:45.188Z,34.31
2019-04-07T12:30:16.495Z,34.52
2019-04-07T12:32:46.702Z,34.31
2019-04-07T12:35:32.985Z,33.25
2019-04-07T12:38:12.248Z,33.07
2019-04-07T12:40:41.063Z,33.51
2019-04-07T12:43:13.200Z,32.99
2019-04-07T12:45:59.362Z,33.04
2019-04-07T12:48:45.680Z,32.98
2019-04-07T12:51:17.614Z,33.03
2019-04-07T12:54:07.331Z,32.79
2019-04-07T12:56:47.796Z,32.80
2019-04-07T12:59:19.094Z,32.54
2019-04-07T13:01:55.123Z,32.27
2019-04-07T13:04:28.451Z,32.18
2019-04-07T13:06:58.832Z,31.80
2019-04-07T13:09:33.089Z,31.55
2019-04-07T13:12:22.690Z,31.25
2019-04-07T13:15:11.939Z,30.55
2019-04-07T13:17:59.618Z,30.67
2019-04-07T13:20:44.185Z,30.50
2019-04-07T13:23:17.678Z,29.74
2019-04-07T13:25:50.469Z,29.79
2019-04-07T13:28:26.047Z,29.44
2019-04-07T13:31:12.521Z,29.93
2019-04-07T13:34:01.284Z,30.36
2019-04-07T13:36:50.974Z,30.29
2019-04-07T13:39:22.377Z,30.49
2019-04-07T13:41:55.311Z,30.74
2019-04-07T13:44:27.153Z,31.57
2019-04-07T13:47:14.549Z,31.54
2019-04-07T13:49:57.405Z,30.94
2019-04-07T13:52:31.265Z,30.68
2019-04-07T13:55:05.100Z,30.45
2019-04-07T13:57:42.918Z,30.11
2019-04-07T14:00:26.307Z,30.17
2019-04-07T14:03:12.480Z,30.46
2019-04-07T14:05:58.998Z,30.14
2019-04-07T14:08:37.986Z,30.06
2019-04-07T14:11:23.429Z,29.78
2019-04-07T14:14:00.202Z,29.56
2019-04-07T14:16:48.690Z,29.72
2019-04-07T14:19:22.014Z,29.48
2019-04-07T14:21:57.974Z,29.40
2019-04-07T14:24:44.470Z,29.03
2019-04-07T14:27:23.774Z,28.85
2019-04-07T14:30:01.464Z,29.14
2019-04-07T14:32:50.637Z,29.17
2019-04-07T14:35:24.207Z,29.44
2019-04-07T14:37:57.239Z,29.50
2019-04-07T14:40:29.168Z,29.35
2019-04-07T14:43:17.746Z,29.59
2019-04-07T14:45:59.704Z,29.42
2019-04-07T14:48:33.560Z,29.67
2019-04-07T14:51:13.291Z,29.19
2019-04-07T14:54:00.022Z,28.84
2019-04-07T14:56:48.887Z,28.81
2019-04-07T14:59:36.496Z,28.74
2019-04-07T15:02:06.272Z,28.73
2019-04-07T15:04:39.992Z,28.32
2019-04-07T15:07:26.869Z,28.19
2019-04-07T15:10:09.541Z,28.17
2019-04-07T15:12:57.971Z,28.13
2019-04-07T15:15:26.822Z,28.31
2019-04-07T15:17:55.447Z,28.42
2019-04-07T15:20:24.960Z,28.64
2019-04-07T15:22:53.957Z,28.73
2019-04-07T15:25:22.672Z,28.61
2019-04-07T15:27:52.761Z,28.33
2019-04-07T15:30:22.199Z,28.25
2019-04-07T15:32:51.573Z,27.87
2019-04-07T15:35:20.210Z,27.31
2019-04-07T15:37:51.561Z,27.66
2019-04-07T15:40:19.281Z,27.61
2019-04-07T15:42:50.571Z,27.65
2019-04-07T15:45:20.097Z,27.70
2019-04-07T15:47:51.338Z,27.64
2019-04-07T15:50:18.577Z,27.60
2019-04-07T15:52:47.349Z,27.73
2019-04-07T15:55:16.742Z,28.18
2019-04-07T15:57:45.349Z,28.46
2019-04-07T16:00:13.889Z,28.72
2019-04-07T16:02:43.163Z,28.80
2019-04-07T16:05:12.490Z,29.01
2019-04-07T16:07:41.831Z,29.36
2019-04-07T16:10:11.006Z,29.17
2019-04-07T16:12:46.549Z,29.18
2019-04-07T16:15:10.846Z,29.41
2019-04-07T16:17:40.211Z,29.64
2019-04-07T16:20:20.685Z,30.05
2019-04-07T16:22:47.851Z,30.32
2019-04-07T16:25:18.361Z,30.71
2019-04-07T16:27:47.654Z,30.94
2019-04-07T16:30:19.155Z,31.46
2019-04-07T16:32:46.951Z,31.79
2019-04-07T16:35:18.389Z,32.16
2019-04-07T16:37:47.860Z,32.44
2019-04-07T16:40:16.747Z,32.79
2019-04-07T16:43:00.542Z,32.90
2019-04-07T16:45:17.803Z,33.16
2019-04-07T16:47:46.132Z,33.48
2019-04-07T16:50:18.109Z,33.56
2019-04-07T16:52:44.867Z,33.74
2019-04-07T16:55:34.883Z,33.64
2019-04-07T16:58:05.081Z,33.23
2019-04-07T17:00:34.418Z,33.02
2019-04-07T17:03:05.567Z,32.92
2019-04-07T17:05:34.229Z,32.88
2019-04-07T17:08:02.774Z,33.00
2019-04-07T17:10:34.147Z,33.12
2019-04-07T17:13:09.259Z,33.22
2019-04-07T17:15:32.786Z,33.43
2019-04-07T17:18:02.388Z,33.77
2019-04-07T17:20:33.681Z,34.05
2019-04-07T17:23:01.066Z,34.42
2019-04-07T17:25:32.807Z,35.04
2019-04-07T17:28:03.619Z,35.59
2019-04-07T17:30:30.142Z,36.34
2019-04-07T17:32:58.709Z,37.08
2019-04-07T17:35:28.502Z,37.52
2019-04-07T17:38:01.738Z,37.64
2019-04-07T17:40:30.820Z,37.51
2019-04-07T17:43:01.815Z,37.54
2019-04-07T17:45:41.299Z,37.78
2019-04-07T17:48:37.334Z,37.89
2019-04-07T17:51:05.300Z,38.15
2019-04-07T17:53:46.599Z,38.43
2019-04-07T17:56:22.223Z,38.53
2019-04-07T17:58:52.428Z,38.82
2019-04-07T18:01:30.019Z,39.32
2019-04-07T18:04:14.636Z,39.79
2019-04-07T18:07:03.499Z,40.32
2019-04-07T18:09:32.995Z,40.81
2019-04-07T18:12:14.342Z,41.32
2019-04-07T18:14:43.814Z,41.97
2019-04-07T18:17:13.898Z,42.41
2019-04-07T18:19:44.043Z,42.98
2019-04-07T18:22:22.112Z,43.40
2019-04-07T18:24:51.959Z,43.83
2019-04-07T18:27:34.140Z,44.12
2019-04-07T18:30:10.481Z,44.55
2019-04-07T18:32:53.448Z,44.93
2019-04-07T18:35:31.441Z,45.38
2019-04-07T18:38:11.063Z,45.80
2019-04-07T18:41:00.985Z,46.11
2019-04-07T18:43:31.780Z,46.49
2019-04-07T18:46:02.009Z,46.92
2019-04-07T18:48:34.545Z,47.32
2019-04-07T18:51:05.836Z,47.80
2019-04-07T18:53:38.549Z,48.25
2019-04-07T18:56:09.848Z,48.68
2019-04-07T18:58:48.926Z,49.16
2019-04-07T19:01:34.205Z,49.50
2019-04-07T19:04:10.439Z,49.87
2019-04-07T19:06:46.413Z,50.20
2019-04-07T19:09:18.939Z,50.50
2019-04-07T19:12:02.804Z,50.82
2019-04-07T19:14:40.117Z,51.11
2019-04-07T19:16:58.892Z,51.40
2019-04-07T19:19:38.085Z,51.62
2019-04-07T19:22:17.957Z,51.99
2019-04-07T19:24:52.157Z,52.21
2019-04-07T19:27:38.607Z,52.37
2019-04-07T19:30:13.220Z,52.53
2019-04-07T19:32:41.813Z,52.79
2019-04-07T19:35:23.785Z,53.06
2019-04-07T19:38:09.175Z,53.30
2019-04-07T19:40:40.151Z,53.49
2019-04-07T19:43:13.798Z,53.62
2019-04-07T19:45:48.967Z,53.84
2019-04-07T19:48:19.152Z,54.05
2019-04-07T19:50:50.846Z,54.40
2019-04-07T19:53:32.536Z,54.50
2019-04-07T19:56:02.484Z,54.66
2019-04-07T19:58:49.358Z,54.75
2019-04-07T20:01:31.589Z,55.00
2019-04-07T20:04:05.348Z,55.08
2019-04-07T20:06:36.283Z,55.28
2019-04-07T20:09:11.085Z,55.50
2019-04-07T20:11:46.050Z,55.62
2019-04-07T20:14:30.434Z,55.84
2019-04-07T20:17:04.176Z,56.01
2019-04-07T20:19:39.472Z,56.34
2019-04-07T20:22:23.140Z,56.61
2019-04-07T20:24:56.619Z,56.94
2019-04-07T20:27:28.773Z,57.17
2019-04-07T20:30:00.520Z,57.49
2019-04-07T20:32:33.453Z,57.81
2019-04-07T20:35:20.870Z,58.00
2019-04-07T20:38:06.365Z,58.29
2019-04-07T20:40:46.688Z,59.12
2019-04-07T20:43:17.703Z,59.38
2019-04-07T20:46:05.069Z,59.58
2019-04-07T20:48:36.788Z,59.85
2019-04-07T20:51:07.192Z,60.00
2019-04-07T20:53:43.135Z,60.19
2019-04-07T20:56:19.249Z,60.38
2019-04-07T20:59:04.597Z,60.44
2019-04-07T21:01:42.939Z,60.66
2019-04-07T21:04:17.980Z,60.89
2019-04-07T21:06:51.077Z,61.09
2019-04-07T21:09:23.894Z,61.23
2019-04-07T21:12:00.874Z,61.59
2019-04-07T21:14:47.373Z,61.75
2019-04-07T21:17:17.548Z,61.97
2019-04-07T21:20:05.392Z,62.33
2019-04-07T21:22:50.816Z,62.63
2019-04-07T21:25:25.337Z,62.87
2019-04-07T21:28:06.188Z,63.13
2019-04-07T21:30:36.786Z,63.47
2019-04-07T21:33:09.630Z,63.84
2019-04-07T21:35:56.204Z,64.25
2019-04-07T21:38:41.395Z,64.50
2019-04-07T21:41:13.373Z,64.89
2019-04-07T21:43:59.672Z,65.10
2019-04-07T21:46:30.423Z,65.30
2019-04-07T21:49:17.815Z,65.59
2019-04-07T21:51:53.664Z,65.68
2019-04-07T21:54:23.777Z,65.83
2019-04-07T21:57:09.894Z,65.90
2019-04-07T21:59:40.213Z,65.97
2019-04-07T22:02:13.659Z,66.34
2019-04-07T22:04:57.040Z,66.57
2019-04-07T22:07:33.141Z,66.68
2019-04-07T22:10:01.645Z,66.66
2019-04-07T22:12:30.720Z,66.72
2019-04-07T22:15:00.265Z,67.06
2019-04-07T22:17:32.615Z,67.15
2019-04-07T22:19:59.023Z,67.24
2019-04-07T22:22:27.728Z,67.43
2019-04-07T22:24:56.153Z,67.50
2019-04-07T22:27:27.184Z,67.41
2019-04-07T22:29:54.841Z,67.29
2019-04-07T22:32:24.354Z,67.51
2019-04-07T22:34:52.956Z,67.75
2019-04-07T22:37:22.477Z,67.63
2019-04-07T22:39:52.712Z,67.56
2019-04-07T22:42:21.274Z,67.75
2019-04-07T22:44:53.278Z,67.74
2019-04-07T22:47:22.294Z,67.98
2019-04-07T22:49:50.635Z,68.20
2019-04-07T22:52:19.192Z,68.46
2019-04-07T22:54:47.818Z,68.68
2019-04-07T22:57:16.380Z,68.67
2019-04-07T22:59:44.864Z,68.42
2019-04-07T23:02:13.723Z,68.43
2019-04-07T23:04:42.671Z,68.78
2019-04-07T23:07:11.698Z,68.94
2019-04-07T23:09:41.138Z,69.02
2019-04-07T23:12:10.616Z,69.01
2019-04-07T23:14:40.149Z,69.19
2019-04-07T23:17:08.738Z,69.48
2019-04-07T23:19:37.830Z,69.67
2019-04-07T23:22:06.474Z,69.64
2019-04-07T23:24:35.035Z,69.97
2019-04-07T23:27:04.133Z,69.91
2019-04-07T23:29:32.751Z,70.16
2019-04-07T23:32:01.834Z,70.40
2019-04-07T23:34:31.105Z,70.44
2019-04-07T23:36:59.799Z,70.21
2019-04-07T23:39:29.186Z,70.03
2019-04-07T23:41:58.612Z,70.03
2019-04-07T23:44:27.686Z,69.88
2019-04-07T23:46:57.117Z,70.01
2019-04-07T23:49:26.055Z,70.12
2019-04-07T23:51:55.299Z,70.08
2019-04-07T23:54:24.787Z,70.37
2019-04-07T23:56:54.079Z,70.84
2019-04-07T23:59:22.863Z,71.20
